createdAt,value
2022-10-15T00:10:54.116Z,13
2022-10-15T00:45:54.128Z,8
2022-10-15T01:02:54.204Z,9
2022-10-15T01:15:54.131Z,7
2022-10-15T01:50:54.139Z,9
2022-10-15T02:25:54.152Z,13
2022-10-15T02:35:54.106Z,14
2022-10-15T03:02:54.107Z,25
2022-10-15T03:06:54.117Z,26
2022-10-15T03:13:54.111Z,26
2022-10-15T03:30:54.159Z,18
2022-10-15T03:37:54.192Z,18
2022-10-15T04:06:54.311Z,15
2022-10-15T04:11:04.381Z,15
2022-10-15T04:11:54.157Z,15
2022-10-15T04:12:54.108Z,15
2022-10-15T04:13:54.193Z,15
2022-10-15T04:14:54.114Z,15
2022-10-15T04:15:54.106Z,15
2022-10-15T04:16:54.105Z,15
2022-10-15T04:17:54.160Z,16
2022-10-15T04:18:54.114Z,16
2022-10-15T04:20:54.110Z,15
2022-10-15T04:22:54.106Z,16
2022-10-15T04:23:54.134Z,15
2022-10-15T04:24:54.106Z,15
2022-10-15T04:25:54.105Z,16
2022-10-15T04:26:54.107Z,16
2022-10-15T04:29:54.106Z,15
2022-10-15T04:32:54.109Z,17
2022-10-15T04:34:54.113Z,17
2022-10-15T04:36:54.113Z,16
2022-10-15T04:37:54.110Z,15
2022-10-15T04:39:54.109Z,16
2022-10-15T04:41:54.106Z,15
2022-10-15T04:42:54.109Z,16
2022-10-15T04:44:54.108Z,16
2022-10-15T04:45:54.110Z,15
2022-10-15T04:46:54.113Z,16
2022-10-15T04:47:54.105Z,16
2022-10-15T04:48:54.114Z,15
2022-10-15T04:49:54.116Z,15
2022-10-15T04:50:54.112Z,16
2022-10-15T04:51:54.114Z,15
2022-10-15T04:53:54.107Z,16
2022-10-15T04:54:54.136Z,15
2022-10-15T04:55:54.110Z,15
2022-10-15T04:56:54.117Z,15
2022-10-15T04:57:54.114Z,16
2022-10-15T04:58:54.106Z,15
2022-10-15T04:59:56.949Z,16
2022-10-15T05:00:54.122Z,16
2022-10-15T05:01:54.151Z,16
2022-10-15T05:02:54.110Z,16
2022-10-15T05:03:54.113Z,15
2022-10-15T05:04:54.118Z,15
2022-10-15T05:05:54.120Z,14
2022-10-15T05:06:54.112Z,16
2022-10-15T05:07:54.119Z,15
2022-10-15T05:08:54.112Z,15
2022-10-15T05:09:54.124Z,15
2022-10-15T05:10:54.117Z,14
2022-10-15T05:11:54.116Z,15
2022-10-15T05:12:56.678Z,15
2022-10-15T05:13:54.118Z,15
2022-10-15T05:14:54.120Z,15
2022-10-15T05:15:54.118Z,16
2022-10-15T05:16:54.115Z,16
2022-10-15T05:17:54.127Z,16
2022-10-15T05:18:54.120Z,16
2022-10-15T05:19:54.123Z,16
2022-10-15T05:20:54.121Z,15
2022-10-15T05:21:54.122Z,15
2022-10-15T05:22:54.156Z,15
2022-10-15T05:23:54.122Z,16
2022-10-15T05:24:54.118Z,16
2022-10-15T05:25:54.302Z,16
2022-10-15T05:26:54.122Z,15
2022-10-15T05:27:54.119Z,16
2022-10-15T05:28:54.210Z,15
2022-10-15T05:29:54.121Z,15
2022-10-15T05:30:54.120Z,15
2022-10-15T05:31:54.114Z,15
2022-10-15T05:32:54.116Z,16
2022-10-15T05:33:54.504Z,15
2022-10-15T05:34:54.117Z,16
2022-10-15T05:35:54.132Z,16
2022-10-15T05:36:54.126Z,15
2022-10-15T05:37:54.128Z,16
2022-10-15T05:38:54.121Z,17
2022-10-15T05:39:54.128Z,17
2022-10-15T05:40:54.122Z,17
2022-10-15T05:41:54.122Z,17
2022-10-15T05:43:54.129Z,17
2022-10-15T05:44:54.126Z,16
2022-10-15T05:45:54.123Z,16
2022-10-15T05:46:54.123Z,16
2022-10-15T05:47:54.123Z,16
2022-10-15T05:48:54.126Z,15
2022-10-15T05:49:54.126Z,16
2022-10-15T05:50:54.127Z,16
2022-10-15T05:52:54.121Z,15
2022-10-15T05:53:54.129Z,16
2022-10-15T05:54:54.128Z,15
2022-10-15T05:55:54.132Z,15
2022-10-15T05:56:54.153Z,15
2022-10-15T05:57:54.119Z,14
2022-10-15T05:58:54.126Z,15
2022-10-15T05:59:54.123Z,15
2022-10-15T06:00:54.116Z,14
2022-10-15T06:01:54.217Z,14
2022-10-15T06:03:54.132Z,14
2022-10-15T06:04:54.129Z,14
2022-10-15T06:05:54.122Z,14
2022-10-15T06:06:54.128Z,14
2022-10-15T06:07:54.124Z,14
2022-10-15T06:08:54.130Z,14
2022-10-15T06:09:54.129Z,14
2022-10-15T06:10:54.122Z,15
2022-10-15T06:11:54.134Z,15
2022-10-15T06:12:54.121Z,14
2022-10-15T06:13:54.132Z,14
2022-10-15T06:14:54.138Z,15
2022-10-15T06:15:54.120Z,15
2022-10-15T06:16:54.151Z,15
2022-10-15T06:17:54.128Z,15
2022-10-15T06:18:54.128Z,15
2022-10-15T06:19:54.131Z,15
2022-10-15T06:20:54.129Z,14
2022-10-15T06:21:54.133Z,15
2022-10-15T06:22:54.138Z,15
2022-10-15T06:23:54.128Z,14
2022-10-15T06:24:54.126Z,14
2022-10-15T06:25:54.125Z,15
2022-10-15T06:26:54.138Z,16
2022-10-15T06:27:54.187Z,15
2022-10-15T06:28:54.159Z,15
2022-10-15T06:29:54.128Z,15
2022-10-15T06:30:54.131Z,15
2022-10-15T06:31:54.130Z,15
2022-10-15T06:32:54.131Z,15
2022-10-15T06:33:54.138Z,15
2022-10-15T06:34:54.157Z,15
2022-10-15T06:35:54.136Z,14
2022-10-15T06:36:54.131Z,15
2022-10-15T06:37:54.133Z,14
2022-10-15T06:38:54.136Z,15
2022-10-15T06:39:54.147Z,15
2022-10-15T06:40:54.123Z,14
2022-10-15T06:41:54.135Z,14
2022-10-15T06:42:54.142Z,14
2022-10-15T06:43:54.139Z,14
2022-10-15T06:44:54.138Z,15
2022-10-15T06:45:54.131Z,14
2022-10-15T06:46:54.134Z,14
2022-10-15T06:47:54.134Z,14
2022-10-15T06:48:54.142Z,14
2022-10-15T06:49:54.135Z,14
2022-10-15T06:50:54.134Z,13
2022-10-15T06:51:54.130Z,14
2022-10-15T06:52:54.155Z,15
2022-10-15T06:53:54.133Z,13
2022-10-15T06:54:54.133Z,13
2022-10-15T06:55:54.136Z,14
2022-10-15T06:56:54.142Z,13
2022-10-15T06:57:54.139Z,13
2022-10-15T06:58:54.160Z,13
2022-10-15T06:59:54.142Z,14
2022-10-15T07:00:54.157Z,13
2022-10-15T07:01:54.134Z,14
2022-10-15T07:02:54.134Z,14
2022-10-15T07:03:54.138Z,13
2022-10-15T07:04:54.142Z,14
2022-10-15T07:05:54.137Z,14
2022-10-15T07:06:54.131Z,14
2022-10-15T07:07:54.137Z,13
2022-10-15T07:08:54.143Z,13
2022-10-15T07:09:54.144Z,14
2022-10-15T07:10:54.152Z,14
2022-10-15T07:11:54.148Z,14
2022-10-15T07:12:54.138Z,13
2022-10-15T07:13:54.161Z,13
2022-10-15T07:14:54.135Z,14
2022-10-15T07:15:54.195Z,13
2022-10-15T07:16:54.133Z,13
2022-10-15T07:17:54.139Z,13
2022-10-15T07:18:54.142Z,14
2022-10-15T07:19:54.133Z,14
2022-10-15T07:20:54.136Z,13
2022-10-15T07:21:54.139Z,14
2022-10-15T07:22:54.158Z,14
2022-10-15T07:23:54.142Z,13
2022-10-15T07:24:54.142Z,13
2022-10-15T07:25:54.139Z,14
2022-10-15T07:26:54.151Z,13
2022-10-15T07:27:54.134Z,13
2022-10-15T07:28:54.194Z,13
2022-10-15T07:29:54.174Z,13
2022-10-15T07:30:54.150Z,13
2022-10-15T07:31:54.142Z,14
2022-10-15T07:32:54.146Z,14
2022-10-15T07:33:54.142Z,14
2022-10-15T07:34:54.140Z,14
2022-10-15T07:35:54.148Z,14
2022-10-15T07:36:54.145Z,14
2022-10-15T07:37:54.148Z,14
2022-10-15T07:38:54.141Z,14
2022-10-15T07:39:54.146Z,14
2022-10-15T07:40:54.138Z,14
2022-10-15T07:41:54.146Z,14
2022-10-15T07:42:54.145Z,14
2022-10-15T07:43:54.151Z,14
2022-10-15T07:44:54.145Z,14
2022-10-15T07:45:54.147Z,14
2022-10-15T07:46:54.141Z,15
2022-10-15T07:47:54.143Z,15
2022-10-15T07:48:54.151Z,15
2022-10-15T07:49:54.148Z,15
2022-10-15T07:50:54.141Z,15
2022-10-15T07:51:54.149Z,15
2022-10-15T07:52:54.148Z,15
2022-10-15T07:53:54.150Z,15
2022-10-15T07:54:54.142Z,14
2022-10-15T07:55:54.147Z,14
2022-10-15T07:56:54.158Z,16
2022-10-15T07:57:54.143Z,16
2022-10-15T07:58:54.148Z,15
2022-10-15T07:59:54.156Z,16
2022-10-15T08:00:54.170Z,15
2022-10-15T08:01:54.153Z,15
2022-10-15T08:02:54.153Z,15
2022-10-15T08:03:54.164Z,15
2022-10-15T08:04:54.155Z,15
2022-10-15T08:05:54.151Z,14
2022-10-15T08:06:54.154Z,15
2022-10-15T08:07:54.147Z,15
2022-10-15T08:08:54.159Z,15
2022-10-15T08:09:54.150Z,14
2022-10-15T08:10:54.157Z,14
2022-10-15T08:11:54.149Z,14
2022-10-15T08:12:54.153Z,14
2022-10-15T08:13:54.152Z,14
2022-10-15T08:14:54.147Z,14
2022-10-15T08:15:56.357Z,14
2022-10-15T08:16:54.158Z,14
2022-10-15T08:17:54.154Z,14
2022-10-15T08:18:54.167Z,14
2022-10-15T08:19:54.162Z,14
2022-10-15T08:20:54.153Z,14
2022-10-15T08:21:54.152Z,13
2022-10-15T08:22:54.149Z,14
2022-10-15T08:23:54.145Z,14
2022-10-15T08:24:54.159Z,13
2022-10-15T08:25:54.148Z,13
2022-10-15T08:26:54.158Z,13
2022-10-15T08:27:54.151Z,13
2022-10-15T08:28:54.230Z,14
2022-10-15T08:29:54.159Z,13
2022-10-15T08:30:54.185Z,14
2022-10-15T08:31:54.201Z,14
2022-10-15T08:32:54.157Z,14
2022-10-15T08:33:54.151Z,14
2022-10-15T08:34:54.164Z,14
2022-10-15T08:35:54.162Z,14
2022-10-15T08:36:54.170Z,14
2022-10-15T08:37:54.172Z,13
2022-10-15T08:38:54.152Z,14
2022-10-15T08:39:54.162Z,13
2022-10-15T08:40:54.152Z,12
2022-10-15T08:41:54.156Z,13
2022-10-15T08:42:54.159Z,12
2022-10-15T08:43:54.159Z,12
2022-10-15T08:44:54.158Z,12
2022-10-15T08:45:54.150Z,12
2022-10-15T08:46:54.167Z,12
2022-10-15T08:47:54.160Z,11
2022-10-15T08:48:54.163Z,10
2022-10-15T08:49:54.164Z,10
2022-10-15T08:50:54.224Z,10
2022-10-15T08:51:54.158Z,10
2022-10-15T08:52:54.165Z,10
2022-10-15T08:53:54.155Z,10
2022-10-15T08:54:54.157Z,9
2022-10-15T08:55:54.171Z,9
2022-10-15T08:56:54.168Z,9
2022-10-15T08:57:54.155Z,9
2022-10-15T08:58:54.161Z,9
2022-10-15T08:59:54.162Z,8
2022-10-15T09:00:54.155Z,8
2022-10-15T09:01:54.190Z,8
2022-10-15T09:02:54.267Z,8
2022-10-15T09:03:54.161Z,7
2022-10-15T09:04:54.172Z,8
2022-10-15T09:05:54.168Z,7
2022-10-15T09:06:54.159Z,6
2022-10-15T09:07:54.611Z,7
2022-10-15T09:08:54.155Z,6
2022-10-15T09:09:54.161Z,6
2022-10-15T09:10:54.158Z,7
2022-10-15T09:11:54.162Z,6
2022-10-15T09:12:54.162Z,6
2022-10-15T09:13:54.169Z,5
2022-10-15T09:14:55.725Z,5
2022-10-15T09:15:54.165Z,5
2022-10-15T09:16:54.166Z,5
2022-10-15T09:17:54.162Z,4
2022-10-15T09:18:54.167Z,4
2022-10-15T09:19:54.162Z,4
2022-10-15T09:20:54.171Z,4
2022-10-15T09:21:54.171Z,4
2022-10-15T09:22:54.165Z,4
2022-10-15T09:23:54.169Z,3
2022-10-15T09:24:54.171Z,4
2022-10-15T09:25:54.161Z,3
2022-10-15T09:26:54.171Z,3
2022-10-15T09:27:54.169Z,3
2022-10-15T09:28:54.337Z,3
2022-10-15T09:29:54.168Z,3
2022-10-15T09:30:54.157Z,3
2022-10-15T09:31:54.230Z,3
2022-10-15T09:32:54.663Z,3
2022-10-15T09:33:54.192Z,3
2022-10-15T09:34:54.164Z,3
2022-10-15T09:35:54.201Z,2
2022-10-15T09:37:54.174Z,2
2022-10-15T09:38:54.161Z,2
2022-10-15T09:39:54.180Z,2
2022-10-15T09:40:54.165Z,2
2022-10-15T09:41:54.184Z,2
2022-10-15T09:42:54.170Z,2
2022-10-15T09:43:54.174Z,2
2022-10-15T09:44:54.177Z,1
2022-10-15T09:45:54.165Z,1
2022-10-15T09:46:54.165Z,1
2022-10-15T09:47:54.171Z,1
2022-10-15T09:48:54.200Z,1
2022-10-15T09:49:54.165Z,1
2022-10-15T09:50:54.175Z,1
2022-10-15T09:51:54.169Z,1
2022-10-15T09:52:54.182Z,1
2022-10-15T09:53:54.188Z,1
2022-10-15T09:54:54.167Z,1
2022-10-15T09:55:54.175Z,1
2022-10-15T09:56:54.171Z,1
2022-10-15T09:57:54.182Z,0
2022-10-15T09:58:54.173Z,0
2022-10-15T09:59:54.177Z,1
2022-10-15T10:00:54.169Z,0
2022-10-15T10:01:54.232Z,0
2022-10-15T10:02:54.171Z,1
2022-10-15T10:03:54.174Z,0
2022-10-15T10:04:54.208Z,0
2022-10-15T10:05:54.202Z,0
2022-10-15T10:06:54.179Z,0
2022-10-15T10:07:54.172Z,0
2022-10-15T10:08:54.167Z,0
2022-10-15T10:09:54.188Z,0
2022-10-15T10:10:54.174Z,0
2022-10-15T10:11:54.185Z,0
2022-10-15T10:12:54.177Z,1
2022-10-15T10:13:54.180Z,1
2022-10-15T10:14:54.174Z,1
2022-10-15T10:15:58.293Z,0
2022-10-15T10:17:54.176Z,0
2022-10-15T10:18:54.170Z,0
2022-10-15T10:19:54.177Z,0
2022-10-15T10:20:54.181Z,0
2022-10-15T10:21:54.179Z,0
2022-10-15T10:22:54.183Z,0
2022-10-15T10:23:54.176Z,0
2022-10-15T10:24:54.179Z,0
2022-10-15T10:25:54.186Z,0
2022-10-15T10:26:54.231Z,0
2022-10-15T10:27:54.184Z,0
2022-10-15T10:28:56.764Z,0
2022-10-15T10:29:54.256Z,0
2022-10-15T10:30:54.182Z,0
2022-10-15T10:31:54.187Z,0
2022-10-15T10:32:54.184Z,0
2022-10-15T10:33:54.180Z,0
2022-10-15T10:34:54.183Z,0
2022-10-15T10:35:54.205Z,0
2022-10-15T10:36:54.181Z,0
2022-10-15T10:37:54.177Z,0
2022-10-15T10:38:54.191Z,0
2022-10-15T10:39:54.180Z,0
2022-10-15T10:40:54.187Z,0
2022-10-15T10:41:54.186Z,0
2022-10-15T10:42:56.466Z,0
2022-10-15T10:43:54.185Z,0
2022-10-15T10:44:54.180Z,0
2022-10-15T10:45:54.183Z,0
2022-10-15T10:46:54.183Z,1
2022-10-15T10:47:54.185Z,0
2022-10-15T10:48:54.189Z,0
2022-10-15T10:49:54.188Z,0
2022-10-15T10:50:54.188Z,0
2022-10-15T10:51:54.191Z,0
2022-10-15T10:52:54.191Z,0
2022-10-15T10:53:54.195Z,0
2022-10-15T10:54:54.179Z,0
2022-10-15T10:55:54.188Z,1
2022-10-15T10:56:54.210Z,1
2022-10-15T10:57:54.185Z,0
2022-10-15T10:58:54.190Z,0
2022-10-15T10:59:54.212Z,0
2022-10-15T11:00:54.217Z,0
2022-10-15T11:01:54.192Z,0
2022-10-15T11:02:54.183Z,1
2022-10-15T11:03:54.282Z,1
2022-10-15T11:04:54.189Z,1
2022-10-15T11:05:54.185Z,1
2022-10-15T11:06:54.281Z,1
2022-10-15T11:07:54.190Z,1
2022-10-15T11:08:54.187Z,1
2022-10-15T11:09:55.421Z,1
2022-10-15T11:10:54.182Z,1
2022-10-15T11:11:54.188Z,0
2022-10-15T11:12:54.193Z,0
2022-10-15T11:13:54.189Z,0
2022-10-15T11:14:54.189Z,1
2022-10-15T11:15:54.194Z,1
2022-10-15T11:16:54.194Z,1
2022-10-15T11:17:54.192Z,1
2022-10-15T11:18:54.194Z,1
2022-10-15T11:20:12.933Z,1
2022-10-15T11:20:59.649Z,0
2022-10-15T11:21:54.194Z,1
2022-10-15T11:22:54.200Z,1
2022-10-15T11:23:54.202Z,1
2022-10-15T11:25:06.000Z,1
2022-10-15T11:25:54.197Z,1
2022-10-15T11:27:06.586Z,1
2022-10-15T11:27:54.209Z,1
2022-10-15T11:28:54.356Z,1
2022-10-15T11:29:54.205Z,1
2022-10-15T11:30:54.197Z,0
2022-10-15T11:32:02.095Z,1
2022-10-15T11:33:06.977Z,1
2022-10-15T11:33:54.193Z,1
2022-10-15T11:34:54.189Z,1
2022-10-15T11:35:54.757Z,1
2022-10-15T11:36:54.205Z,0
2022-10-15T11:37:54.230Z,1
2022-10-15T11:38:54.272Z,1
2022-10-15T11:39:54.210Z,1
2022-10-15T11:40:54.195Z,1
2022-10-15T11:41:54.201Z,1
2022-10-15T11:42:54.204Z,1
2022-10-15T11:43:54.207Z,1
2022-10-15T11:44:54.200Z,1
2022-10-15T11:45:54.191Z,1
2022-10-15T11:46:54.202Z,1
2022-10-15T11:47:54.205Z,0
2022-10-15T11:48:54.211Z,0
2022-10-15T11:49:54.197Z,1
2022-10-15T11:50:54.200Z,0
2022-10-15T11:51:54.196Z,1
2022-10-15T11:52:54.208Z,1
2022-10-15T11:53:54.203Z,1
2022-10-15T11:54:54.207Z,0
2022-10-15T11:55:54.207Z,1
2022-10-15T11:56:54.204Z,1
2022-10-15T11:57:54.202Z,1
2022-10-15T11:58:54.267Z,1
2022-10-15T11:59:54.230Z,1
2022-10-15T12:00:54.197Z,1
2022-10-15T12:01:54.194Z,0
2022-10-15T12:02:54.243Z,1
2022-10-15T12:03:54.310Z,1
2022-10-15T12:05:54.225Z,1
2022-10-15T12:06:54.205Z,0
2022-10-15T12:07:54.256Z,1
2022-10-15T12:08:54.224Z,1
2022-10-15T12:09:54.208Z,1
2022-10-15T12:10:54.219Z,0
2022-10-15T12:11:54.201Z,1
2022-10-15T12:12:54.212Z,1
2022-10-15T12:13:54.203Z,0
2022-10-15T12:14:54.199Z,1
2022-10-15T12:15:54.213Z,1
2022-10-15T12:16:54.204Z,0
2022-10-15T12:17:54.200Z,1
2022-10-15T12:19:54.205Z,1
2022-10-15T12:20:54.204Z,1
2022-10-15T12:21:54.204Z,1
2022-10-15T12:22:54.202Z,0
2022-10-15T12:23:54.206Z,1
2022-10-15T12:24:54.218Z,1
2022-10-15T12:25:54.201Z,1
2022-10-15T12:26:54.201Z,1
2022-10-15T12:27:54.203Z,1
2022-10-15T12:28:54.275Z,1
2022-10-15T12:29:54.199Z,1
2022-10-15T12:30:54.201Z,1
2022-10-15T12:31:54.208Z,1
2022-10-15T12:32:54.204Z,1
2022-10-15T12:33:54.209Z,1
2022-10-15T12:34:54.213Z,1
2022-10-15T12:35:54.205Z,1
2022-10-15T12:36:54.205Z,1
2022-10-15T12:37:54.205Z,1
2022-10-15T12:38:54.209Z,1
2022-10-15T12:39:54.307Z,1
2022-10-15T12:40:54.207Z,1
2022-10-15T12:41:54.208Z,1
2022-10-15T12:42:54.204Z,1
2022-10-15T12:43:54.209Z,1
2022-10-15T12:44:54.216Z,1
2022-10-15T12:45:54.207Z,1
2022-10-15T12:46:54.244Z,0
2022-10-15T12:47:54.251Z,1
2022-10-15T12:48:54.209Z,1
2022-10-15T12:49:54.210Z,1
2022-10-15T12:50:54.211Z,1
2022-10-15T12:51:56.260Z,1
2022-10-15T12:52:54.210Z,0
2022-10-15T12:53:54.202Z,1
2022-10-15T12:54:56.806Z,1
2022-10-15T12:55:54.215Z,1
2022-10-15T12:56:54.220Z,1
2022-10-15T12:57:54.206Z,1
2022-10-15T12:58:54.218Z,1
2022-10-15T12:59:54.222Z,1
2022-10-15T13:00:54.340Z,1
2022-10-15T13:01:54.209Z,1
2022-10-15T13:02:54.252Z,2
2022-10-15T13:03:54.212Z,1
2022-10-15T13:04:54.220Z,1
2022-10-15T13:05:54.520Z,1
2022-10-15T13:06:54.210Z,1
2022-10-15T13:07:54.213Z,1
2022-10-15T13:08:54.213Z,1
2022-10-15T13:11:54.240Z,1
2022-10-15T13:12:54.211Z,1
2022-10-15T13:13:54.215Z,1
2022-10-15T13:14:54.219Z,1
2022-10-15T13:15:56.818Z,1
2022-10-15T13:16:54.228Z,1
2022-10-15T13:17:54.212Z,0
2022-10-15T13:18:54.219Z,1
2022-10-15T13:19:54.217Z,1
2022-10-15T13:20:54.266Z,1
2022-10-15T13:21:54.240Z,0
2022-10-15T13:23:01.874Z,1
2022-10-15T13:23:56.077Z,0
2022-10-15T13:24:54.217Z,1
2022-10-15T13:25:54.220Z,1
2022-10-15T13:26:54.217Z,1
2022-10-15T13:27:54.214Z,1
2022-10-15T13:28:54.293Z,1
2022-10-15T13:29:54.217Z,1
2022-10-15T13:30:54.230Z,1
2022-10-15T13:31:54.220Z,1
2022-10-15T13:32:54.219Z,1
2022-10-15T13:33:54.222Z,1
2022-10-15T13:34:54.217Z,0
2022-10-15T13:35:54.225Z,0
2022-10-15T13:36:54.223Z,1
2022-10-15T13:37:54.226Z,1
2022-10-15T13:38:54.223Z,1
2022-10-15T13:39:54.234Z,1
2022-10-15T13:40:54.226Z,1
2022-10-15T13:42:54.230Z,1
2022-10-15T13:43:54.229Z,1
2022-10-15T13:44:54.225Z,1
2022-10-15T13:45:54.228Z,1
2022-10-15T13:46:54.228Z,1
2022-10-15T13:47:54.222Z,1
2022-10-15T13:48:54.229Z,1
2022-10-15T13:49:54.225Z,1
2022-10-15T13:50:54.232Z,1
2022-10-15T13:51:54.233Z,1
2022-10-15T13:52:54.227Z,1
2022-10-15T13:53:54.224Z,1
2022-10-15T13:54:54.231Z,1
2022-10-15T13:55:54.219Z,1
2022-10-15T13:56:54.250Z,1
2022-10-15T13:57:54.236Z,1
2022-10-15T13:58:54.230Z,1
2022-10-15T13:59:54.223Z,1
2022-10-15T14:00:54.334Z,1
2022-10-15T14:01:54.244Z,1
2022-10-15T14:02:54.229Z,1
2022-10-15T14:03:54.228Z,1
2022-10-15T14:04:54.232Z,1
2022-10-15T14:05:54.234Z,1
2022-10-15T14:06:56.782Z,1
2022-10-15T14:07:54.242Z,1
2022-10-15T14:08:54.229Z,2
2022-10-15T14:09:54.248Z,1
2022-10-15T14:10:54.231Z,1
2022-10-15T14:11:55.994Z,1
2022-10-15T14:12:54.253Z,1
2022-10-15T14:13:54.233Z,1
2022-10-15T14:14:54.231Z,1
2022-10-15T14:15:54.254Z,1
2022-10-15T14:16:54.250Z,1
2022-10-15T14:17:54.233Z,1
2022-10-15T14:18:54.226Z,1
2022-10-15T14:20:14.342Z,1
2022-10-15T14:20:54.235Z,1
2022-10-15T14:21:54.233Z,1
2022-10-15T14:23:54.232Z,1
2022-10-15T14:24:54.301Z,1
2022-10-15T14:25:54.244Z,1
2022-10-15T14:26:54.231Z,1
2022-10-15T14:27:54.237Z,1
2022-10-15T14:28:54.274Z,1
2022-10-15T14:29:54.229Z,1
2022-10-15T14:30:54.233Z,1
2022-10-15T14:31:54.236Z,1
2022-10-15T14:32:54.243Z,1
2022-10-15T14:33:54.230Z,1
2022-10-15T14:34:54.233Z,1
2022-10-15T14:35:54.244Z,1
2022-10-15T14:36:54.240Z,1
2022-10-15T14:37:54.232Z,1
2022-10-15T14:38:54.239Z,1
2022-10-15T14:39:54.238Z,1
2022-10-15T14:40:54.235Z,1
2022-10-15T14:41:54.242Z,1
2022-10-15T14:42:54.240Z,1
2022-10-15T14:43:54.272Z,1
2022-10-15T14:44:54.245Z,1
2022-10-15T14:45:54.241Z,1
2022-10-15T14:46:54.257Z,1
2022-10-15T14:47:54.239Z,1
2022-10-15T14:49:54.266Z,1
2022-10-15T14:50:54.246Z,1
2022-10-15T14:51:54.252Z,1
2022-10-15T14:52:54.247Z,1
2022-10-15T14:53:54.249Z,1
2022-10-15T14:54:54.248Z,1
2022-10-15T14:55:54.254Z,1
2022-10-15T14:56:54.239Z,1
2022-10-15T14:57:54.236Z,1
2022-10-15T14:58:54.240Z,2
2022-10-15T14:59:54.248Z,1
2022-10-15T15:00:54.246Z,1
2022-10-15T15:01:57.133Z,1
2022-10-15T15:02:54.372Z,1
2022-10-15T15:03:54.247Z,1
2022-10-15T15:04:54.239Z,1
2022-10-15T15:05:54.248Z,1
2022-10-15T15:06:54.251Z,1
2022-10-15T15:07:54.246Z,1
2022-10-15T15:08:54.238Z,1
2022-10-15T15:09:54.244Z,1
2022-10-15T15:10:54.251Z,1
2022-10-15T15:12:54.250Z,1
2022-10-15T15:13:54.264Z,1
2022-10-15T15:14:54.272Z,1
2022-10-15T15:15:54.252Z,1
2022-10-15T15:16:54.237Z,1
2022-10-15T15:17:54.245Z,1
2022-10-15T15:18:54.257Z,1
2022-10-15T15:19:54.314Z,1
2022-10-15T15:20:54.265Z,1
2022-10-15T15:21:54.245Z,1
2022-10-15T15:22:54.248Z,1
2022-10-15T15:23:54.243Z,1
2022-10-15T15:24:54.249Z,1
2022-10-15T15:25:54.250Z,1
2022-10-15T15:26:54.246Z,1
2022-10-15T15:28:54.298Z,2
2022-10-15T15:29:54.250Z,1
2022-10-15T15:30:54.254Z,1
2022-10-15T15:31:54.258Z,1
2022-10-15T15:32:54.255Z,1
2022-10-15T15:33:54.259Z,1
2022-10-15T15:34:54.246Z,2
2022-10-15T15:36:54.247Z,1
2022-10-15T15:37:54.251Z,1
2022-10-15T15:38:54.259Z,1
2022-10-15T15:39:54.259Z,1
2022-10-15T15:40:54.251Z,1
2022-10-15T15:41:54.256Z,2
2022-10-15T15:42:54.248Z,2
2022-10-15T15:43:54.256Z,1
2022-10-15T15:44:54.256Z,1
2022-10-15T15:45:54.278Z,2
2022-10-15T15:47:54.251Z,1
2022-10-15T15:48:54.260Z,1
2022-10-15T15:49:54.252Z,2
2022-10-15T15:50:54.258Z,1
2022-10-15T15:51:54.276Z,1
2022-10-15T15:52:54.261Z,2
2022-10-15T15:53:54.249Z,2
2022-10-15T15:54:54.258Z,1
2022-10-15T15:55:54.263Z,2
2022-10-15T15:56:54.251Z,1
2022-10-15T15:57:54.259Z,1
2022-10-15T15:58:54.256Z,1
2022-10-15T15:59:54.255Z,2
2022-10-15T16:00:54.269Z,1
2022-10-15T16:01:54.311Z,1
2022-10-15T16:02:57.769Z,1
2022-10-15T16:03:54.266Z,1
2022-10-15T16:04:54.281Z,2
2022-10-15T16:06:54.290Z,2
2022-10-15T16:07:54.265Z,2
2022-10-15T16:08:54.273Z,2
2022-10-15T16:09:54.263Z,2
2022-10-15T16:10:54.259Z,2
2022-10-15T16:11:54.274Z,2
2022-10-15T16:12:54.266Z,2
2022-10-15T16:13:54.257Z,2
2022-10-15T16:14:54.306Z,2
2022-10-15T16:15:54.270Z,2
2022-10-15T16:16:54.284Z,2
2022-10-15T16:17:54.258Z,2
2022-10-15T16:18:54.263Z,2
2022-10-15T16:19:54.259Z,2
2022-10-15T16:20:54.274Z,2
2022-10-15T16:22:54.269Z,2
2022-10-15T16:23:54.335Z,2
2022-10-15T16:24:54.270Z,2
2022-10-15T16:25:54.262Z,1
2022-10-15T16:26:54.266Z,1
2022-10-15T16:27:54.267Z,1
2022-10-15T16:28:54.320Z,1
2022-10-15T16:30:54.262Z,1
2022-10-15T16:31:54.273Z,0
2022-10-15T16:32:54.351Z,1
2022-10-15T16:33:54.266Z,0
2022-10-15T16:34:54.259Z,0
2022-10-15T16:35:54.262Z,1
2022-10-15T16:36:54.293Z,1
2022-10-15T16:37:54.271Z,6
2022-10-15T16:38:54.260Z,1
2022-10-15T16:39:54.281Z,1
2022-10-15T16:40:54.261Z,6
2022-10-15T16:41:54.264Z,2
2022-10-15T16:43:54.272Z,7
2022-10-15T16:44:54.263Z,15
2022-10-15T16:47:54.294Z,20
2022-10-15T16:48:54.279Z,3
2022-10-15T16:49:54.266Z,2
2022-10-15T16:50:54.275Z,9
2022-10-15T16:51:54.273Z,20
2022-10-15T16:52:54.271Z,2
2022-10-15T16:53:54.271Z,4
2022-10-15T16:54:54.277Z,3
2022-10-15T16:55:54.270Z,2
2022-10-15T16:57:54.275Z,3
2022-10-15T16:58:54.275Z,2
2022-10-15T16:59:54.276Z,18
2022-10-15T17:00:54.274Z,5
2022-10-15T17:01:54.342Z,1
2022-10-15T17:02:54.298Z,1
2022-10-15T17:03:54.274Z,1
2022-10-15T17:05:54.269Z,1
2022-10-15T17:06:54.278Z,2
2022-10-15T17:07:54.272Z,1
2022-10-15T17:08:54.287Z,1
2022-10-15T17:09:54.295Z,0
2022-10-15T17:11:54.270Z,1
2022-10-15T17:12:54.274Z,1
2022-10-15T17:13:54.273Z,1
2022-10-15T17:14:54.335Z,1
2022-10-15T17:15:56.806Z,2
2022-10-15T17:16:54.277Z,1
2022-10-15T17:17:54.271Z,1
2022-10-15T17:18:54.312Z,1
2022-10-15T17:19:54.277Z,1
2022-10-15T17:20:54.275Z,1
2022-10-15T17:21:54.276Z,1
2022-10-15T17:22:54.284Z,1
2022-10-15T17:23:54.271Z,1
2022-10-15T17:25:54.280Z,1
2022-10-15T17:26:54.275Z,1
2022-10-15T17:27:54.271Z,1
2022-10-15T17:28:54.289Z,1
2022-10-15T17:29:54.290Z,1
2022-10-15T17:30:54.272Z,1
2022-10-15T17:31:54.283Z,1
2022-10-15T17:32:54.281Z,1
2022-10-15T17:33:54.281Z,3
2022-10-15T17:34:54.273Z,1
2022-10-15T17:35:54.275Z,1
2022-10-15T17:38:54.278Z,1
2022-10-15T17:39:54.336Z,1
2022-10-15T17:40:54.287Z,1
2022-10-15T17:41:54.289Z,1
2022-10-15T17:42:54.289Z,1
2022-10-15T17:43:54.283Z,1
2022-10-15T17:44:54.287Z,1
2022-10-15T17:46:54.286Z,1
2022-10-15T17:47:54.283Z,1
2022-10-15T17:48:54.282Z,1
2022-10-15T17:49:54.310Z,1
2022-10-15T17:50:54.282Z,1
2022-10-15T17:51:54.284Z,1
2022-10-15T17:52:54.296Z,1
2022-10-15T17:53:54.287Z,1
2022-10-15T17:54:54.287Z,1
2022-10-15T17:55:54.336Z,1
2022-10-15T17:56:54.293Z,1
2022-10-15T17:57:54.287Z,1
2022-10-15T17:58:54.290Z,1
2022-10-15T17:59:54.281Z,3
2022-10-15T18:00:54.285Z,2
2022-10-15T18:01:59.300Z,2
2022-10-15T18:02:54.294Z,2
2022-10-15T18:03:54.286Z,2
2022-10-15T18:04:54.293Z,1
2022-10-15T18:05:54.285Z,1
2022-10-15T18:06:54.319Z,1
2022-10-15T18:07:54.292Z,1
2022-10-15T18:08:54.288Z,1
2022-10-15T18:09:54.302Z,1
2022-10-15T18:10:54.287Z,1
2022-10-15T18:11:54.290Z,1
2022-10-15T18:12:54.284Z,1
2022-10-15T18:13:54.299Z,1
2022-10-15T18:14:54.292Z,2
2022-10-15T18:15:54.288Z,2
2022-10-15T18:16:54.291Z,2
2022-10-15T18:18:54.296Z,2
2022-10-15T18:19:54.288Z,2
2022-10-15T18:20:54.310Z,2
2022-10-15T18:21:54.298Z,3
2022-10-15T18:22:54.294Z,2
2022-10-15T18:23:54.296Z,2
2022-10-15T18:24:54.301Z,2
2022-10-15T18:25:54.289Z,2
2022-10-15T18:26:54.298Z,2
2022-10-15T18:27:54.292Z,1
2022-10-15T18:28:54.482Z,1
2022-10-15T18:29:54.308Z,1
2022-10-15T18:30:54.291Z,1
2022-10-15T18:31:57.699Z,2
2022-10-15T18:32:57.290Z,1
2022-10-15T18:33:54.293Z,2
2022-10-15T18:34:54.306Z,1
2022-10-15T18:35:54.293Z,1
2022-10-15T18:36:54.293Z,1
2022-10-15T18:37:54.297Z,2
2022-10-15T18:38:54.301Z,2
2022-10-15T18:39:54.292Z,3
2022-10-15T18:40:54.291Z,2
2022-10-15T18:42:54.299Z,2
2022-10-15T18:43:54.295Z,2
2022-10-15T18:44:54.293Z,2
2022-10-15T18:45:54.294Z,3
2022-10-15T18:46:54.298Z,2
2022-10-15T18:47:54.309Z,2
2022-10-15T18:48:54.309Z,1
2022-10-15T18:49:54.296Z,2
2022-10-15T18:50:54.297Z,3
2022-10-15T18:51:54.322Z,3
2022-10-15T18:52:54.295Z,2
2022-10-15T18:53:54.297Z,2
2022-10-15T18:54:54.295Z,2
2022-10-15T18:55:54.301Z,2
2022-10-15T18:56:54.294Z,2
2022-10-15T18:58:54.316Z,2
2022-10-15T18:59:54.390Z,2
2022-10-15T19:00:54.303Z,2
2022-10-15T19:01:54.349Z,2
2022-10-15T19:02:54.297Z,1
2022-10-15T19:03:54.301Z,2
2022-10-15T19:04:54.303Z,2
2022-10-15T19:05:54.303Z,1
2022-10-15T19:06:54.304Z,1
2022-10-15T19:07:54.305Z,1
2022-10-15T19:09:54.309Z,1
2022-10-15T19:10:54.297Z,2
2022-10-15T19:11:54.296Z,2
2022-10-15T19:12:54.303Z,2
2022-10-15T19:13:54.308Z,2
2022-10-15T19:15:54.300Z,2
2022-10-15T19:16:54.298Z,2
2022-10-15T19:17:54.344Z,2
2022-10-15T19:18:54.303Z,2
2022-10-15T19:19:54.298Z,2